Surfer14008 — HP6211 — position and weather

sailwx.info

Track history (hours):
 
Tides and Currents Weather Stations Pressure Air Temp Water Temp Dewpoint Dewpoint Depression Visibility Wind Speed Wind Dir Waves Ship Positions

Surfer14008

Last reported at 2017-Dec-18 11:18 UTC. Time now 2018-Feb-17 23:02 UTC.
Position S 05°10' E 011°38'.
Warning: this ship's position is months out of date.

Length 14 m.

Type: Ship. MMSI: 351082000.

Date/timePositionNaut miles runAvg speedWind from/ knotsBaromVisibWave heightAir tempDewpointWater temp
2017-Dec-18 11:18S 05°10' E 011°38'412.7
2017-Dec-18 11:00S 05°13' E 011°36'4 8.1
2017-Dec-18 10:30S 05°16' E 011°33'0 0.3
2017-Dec-18 09:59S 05°16' E 011°33'1 2.3
2017-Dec-18 09:28S 05°15' E 011°33'2 3.8
2017-Dec-18 09:01S 05°16' E 011°34'1 1.0
2017-Dec-18 08:13S 05°16' E 011°33'0 1.5
2017-Dec-18 08:01S 05°16' E 011°34'0 1.0
2017-Dec-18 07:30S 05°16' E 011°34'0 0.9
2017-Dec-18 07:00S 05°16' E 011°34'0 0.8
2017-Dec-18 06:30S 05°16' E 011°34'2 3.7
2017-Dec-18 06:00S 05°15' E 011°33'2 3.6
2017-Dec-18 05:30S 05°16' E 011°34'0 0.0
2017-Dec-18 05:00S 05°16' E 011°34'1 1.5
2017-Dec-18 04:28S 05°16' E 011°35'0 0.0
2017-Dec-18 03:55S 05°16' E 011°35'0 0.0
2017-Dec-18 03:28S 05°16' E 011°35'0 0.0
2017-Dec-18 03:00S 05°16' E 011°35'0 0.0
2017-Dec-18 02:30S 05°16' E 011°35'0 0.0
2017-Dec-17 23:19S 05°16' E 011°35'0 0.0
2017-Dec-17 22:56S 05°16' E 011°35'0 0.0
2017-Dec-17 22:30S 05°16' E 011°35'0 0.0
2017-Dec-17 21:57S 05°16' E 011°35'0 0.9
2017-Dec-17 21:30S 05°16' E 011°34'0 0.8
2017-Dec-17 20:59S 05°16' E 011°34'0 0.9
2017-Dec-17 20:30S 05°17' E 011°34'1 1.6
2017-Dec-17 19:59S 05°16' E 011°35'0 0.0
2017-Dec-17 19:30S 05°16' E 011°35'0 0.0
2017-Dec-17 18:58S 05°16' E 011°35'0 0.0
2017-Dec-17 18:29S 05°16' E 011°35'1 1.8
2017-Dec-17 18:00S 05°16' E 011°34'1 1.2
2017-Dec-17 17:30S 05°16' E 011°34'0 0.6
2017-Dec-17 17:00S 05°16' E 011°34'1 1.8
2017-Dec-17 16:30S 05°16' E 011°35'1 2.3
2017-Dec-17 16:00S 05°16' E 011°33'1 2.2
2017-Dec-17 15:30S 05°16' E 011°35'0 0.1
2017-Dec-17 14:59S 05°16' E 011°35'0 0.3
2017-Dec-17 14:30S 05°16' E 011°34'2 3.4
2017-Dec-17 14:00S 05°17' E 011°33'2 3.7
2017-Dec-17 13:30S 05°16' E 011°35'0 0.1
2017-Dec-17 12:59S 05°16' E 011°35'1 1.6
2017-Dec-17 12:30S 05°16' E 011°34'1 2.0
2017-Dec-17 12:00S 05°16' E 011°33'0 0.7
2017-Dec-17 11:30S 05°15' E 011°33'1 1.9
2017-Dec-17 11:00S 05°16' E 011°34'1 2.9
2017-Dec-17 10:30S 05°15' E 011°33'2 3.7
2017-Dec-17 10:00S 05°16' E 011°34'0 0.1
2017-Dec-17 09:30S 05°17' E 011°34'0 0.1
2017-Dec-17 09:00S 05°16' E 011°34'1 1.3
2017-Dec-17 08:30S 05°16' E 011°34'1 1.3
2017-Dec-17 08:00S 05°16' E 011°34'0 0.1
2017-Dec-17 07:30S 05°16' E 011°34'0 0.9
2017-Dec-17 07:00S 05°17' E 011°34'2 3.8
2017-Dec-17 06:30S 05°15' E 011°33'2 3.2
2017-Dec-17 06:00S 05°16' E 011°34'1 1.7
2017-Dec-17 05:30S 05°16' E 011°35'0 0.0
2017-Dec-17 05:00S 05°16' E 011°35'0 0.0
2017-Dec-16 19:01S 05°16' E 011°35'0 0.0
2017-Dec-16 18:58S 05°16' E 011°35'0 1.0
2017-Dec-16 18:30S 05°16' E 011°34'1 2.2
2017-Dec-16 18:00S 05°15' E 011°34'11 1.7
2017-Dec-16 11:17S 05°05' E 011°39'3 9.5
2017-Dec-16 11:00S 05°07' E 011°38'5 9.2
2017-Dec-16 10:30S 05°12' E 011°36'5 9.1
2017-Dec-16 10:00S 05°16' E 011°34'1 1.2
2017-Dec-16 09:30S 05°16' E 011°34'1 0.5
2017-Dec-16 08:09S 05°16' E 011°35'0 0.1
2017-Dec-16 07:46S 05°16' E 011°35'0 0.0
2017-Dec-16 07:30S 05°16' E 011°35'0 0.0
2017-Dec-16 07:00S 05°16' E 011°35'0 0.0
2017-Dec-16 06:30S 05°16' E 011°35'0 0.0
2017-Dec-16 06:00S 05°16' E 011°35'0 0.0
2017-Dec-16 05:30S 05°16' E 011°35'0 0.0
2017-Dec-16 05:00S 05°16' E 011°35'0 0.0
2017-Dec-16 04:30S 05°16' E 011°35'0 0.0
2017-Dec-16 04:00S 05°16' E 011°35'0 0.0
2017-Dec-16 03:30S 05°16' E 011°35'0 0.0
2017-Dec-16 03:00S 05°16' E 011°35'0 0.0
2017-Dec-16 02:30S 05°16' E 011°35'0 0.0
2017-Dec-16 01:38S 05°16' E 011°35'0 0.1
2017-Dec-16 01:30S 05°16' E 011°35'0 0.0
2017-Dec-16 01:00S 05°16' E 011°35'0 0.0
2017-Dec-16 00:30S 05°16' E 011°35'0 0.0
2017-Dec-16 00:00S 05°16' E 011°35'0 0.0
2017-Dec-15 23:30S 05°16' E 011°35'0 0.0
2017-Dec-15 23:00S 05°16' E 011°35'0 0.0
2017-Dec-15 22:30S 05°16' E 011°35'0 0.0
2017-Dec-15 22:00S 05°16' E 011°35'0 0.0
2017-Dec-15 21:30S 05°16' E 011°35'0 0.0
2017-Dec-15 21:00S 05°16' E 011°35'0 0.0
2017-Dec-15 20:30S 05°16' E 011°35'0 0.0
2017-Dec-15 20:01S 05°16' E 011°35'0 0.0
2017-Dec-15 19:30S 05°16' E 011°35'0 0.0
2017-Dec-15 19:00S 05°16' E 011°35'0 0.0
2017-Dec-15 18:29S 05°16' E 011°35'0 0.0
2017-Dec-15 18:00S 05°16' E 011°35'1 1.7
2017-Dec-15 17:30S 05°16' E 011°34'2 4.4
2017-Dec-15 17:00S 05°15' E 011°35'2 4.5
2017-Dec-15 16:30S 05°17' E 011°34'1 1.0
2017-Dec-15 16:00S 05°16' E 011°34'0 0.7
2017-Dec-15 15:30S 05°16' E 011°35'0 0.1
2017-Dec-15 15:01S 05°16' E 011°35'1 1.5
2017-Dec-15 14:30S 05°16' E 011°34'1 1.5
2017-Dec-15 14:00S 05°16' E 011°35'1 1.6
2017-Dec-15 13:31S 05°16' E 011°34'0 0.1
2017-Dec-15 12:59S 05°17' E 011°34'1 0.7
2017-Dec-15 11:49S 05°16' E 011°35'1 2.5
2017-Dec-15 11:30S 05°16' E 011°34'0 0.7
2017-Dec-15 11:00S 05°17' E 011°34'2 3.6
2017-Dec-15 10:30S 05°15' E 011°33'1 2.9
2017-Dec-15 10:00S 05°16' E 011°34'1 1.4
2017-Dec-15 09:26S 05°16' E 011°35'0 0.0
2017-Dec-15 08:59S 05°16' E 011°35'0 0.0
2017-Dec-15 08:14S 05°16' E 011°35'0 0.0
2017-Dec-15 08:00S 05°16' E 011°35'0 0.0
2017-Dec-15 07:31S 05°16' E 011°35'0 0.0
2017-Dec-15 07:00S 05°16' E 011°35'2 4.0
2017-Dec-15 06:30S 05°15' E 011°33'2 4.1
2017-Dec-15 06:00S 05°17' E 011°34'1 1.6
2017-Dec-15 05:30S 05°16' E 011°34'0 0.7
2017-Dec-15 05:00S 05°16' E 011°34'1 0.9
2017-Dec-15 04:10S 05°16' E 011°35'0 0.0
2017-Dec-15 04:00S 05°16' E 011°35'0 0.0
2017-Dec-15 00:51S 05°16' E 011°35'0 0.0
2017-Dec-15 00:30S 05°16' E 011°35'0 0.0
2017-Dec-14 18:30S 05°16' E 011°35'0 0.0
2017-Dec-14 18:00S 05°16' E 011°35'0 0.0
2017-Dec-14 17:30S 05°16' E 011°35'1 1.4
2017-Dec-14 17:00S 05°16' E 011°34'1 2.3
2017-Dec-14 16:30S 05°17' E 011°33'1 1.5
2017-Dec-14 16:00S 05°17' E 011°34'1 1.1
2017-Dec-14 15:01S 05°16' E 011°35'1 2.4
2017-Dec-14 14:30S 05°17' E 011°34'0 0.8
2017-Dec-14 14:00S 05°17' E 011°34'1 1.4
2017-Dec-14 13:30S 05°16' E 011°34'1 2.0
2017-Dec-14 13:00S 05°16' E 011°35'0 0.0
2017-Dec-14 12:30S 05°16' E 011°35'0 0.0
2017-Dec-14 12:00S 05°16' E 011°35'0 0.1
2017-Dec-14 11:30S 05°16' E 011°35'1 2.1
2017-Dec-14 11:00S 05°17' E 011°34'0 0.7
2017-Dec-14 10:30S 05°17' E 011°33'1 2.9
2017-Dec-14 10:00S 05°16' E 011°35'0 0.0
2017-Dec-14 09:28S 05°16' E 011°35'0 0.1
2017-Dec-14 09:00S 05°16' E 011°35'1 1.5
2017-Dec-14 08:30S 05°16' E 011°34'2 3.7
2017-Dec-14 08:00S 05°15' E 011°35'1 2.7
2017-Dec-14 07:30S 05°16' E 011°34'0 0.3
2017-Dec-14 06:35S 05°16' E 011°35'0 0.8
2017-Dec-14 06:20S 05°16' E 011°34'1 3.3
2017-Dec-14 06:00S 05°16' E 011°33'1 1.5
2017-Dec-14 05:30S 05°16' E 011°34'1 1.0
2017-Dec-14 05:00S 05°16' E 011°34'1 0.4
2017-Dec-14 02:49S 05°16' E 011°34'1 2.6
2017-Dec-14 02:30S 05°16' E 011°34'1 0.3
2017-Dec-13 23:53S 05°16' E 011°35'0 0.0
2017-Dec-13 23:22S 05°16' E 011°35'0 0.0
2017-Dec-13 22:59S 05°16' E 011°35'0 0.0
2017-Dec-13 20:54S 05°16' E 011°35'0 0.0
2017-Dec-13 20:29S 05°16' E 011°35'0 0.0
2017-Dec-13 19:58S 05°16' E 011°35'0 0.0
2017-Dec-13 19:25S 05°16' E 011°35'1 2.0
2017-Dec-13 19:00S 05°16' E 011°34'1 1.2
2017-Dec-13 18:17S 05°16' E 011°35'0 0.8
2017-Dec-13 17:56S 05°16' E 011°34'1 2.8
2017-Dec-13 17:26S 05°15' E 011°34'2 4.1
2017-Dec-13 17:00S 05°16' E 011°34'1 0.5
2017-Dec-13 15:43S 05°16' E 011°34'1 2.9
2017-Dec-13 15:30S 05°17' E 011°34'1 1.2
2017-Dec-13 15:00S 05°17' E 011°34'1 1.3
2017-Dec-13 14:30S 05°16' E 011°34'0 0.4
2017-Dec-13 14:00S 05°16' E 011°34'1 1.0
2017-Dec-13 13:01S 05°15' E 011°33'1 1.8
2017-Dec-13 12:30S 05°16' E 011°34'2 3.1
2017-Dec-13 11:59S 05°15' E 011°33'1 2.8
2017-Dec-13 11:27S 05°16' E 011°34'0 1.1
2017-Dec-13 11:00S 05°16' E 011°34'0 0.7
2017-Dec-13 10:31S 05°16' E 011°34'0 0.0
2017-Dec-13 10:00S 05°16' E 011°34'1 1.8
2017-Dec-13 09:30S 05°16' E 011°34'0 0.2
2017-Dec-13 08:57S 05°16' E 011°34'0 0.9
2017-Dec-13 08:30S 05°16' E 011°34'0 0.8
2017-Dec-13 08:00S 05°16' E 011°34'0 0.7
2017-Dec-13 07:30S 05°17' E 011°34'1 1.2
2017-Dec-13 07:00S 05°16' E 011°34'1 2.0
2017-Dec-13 06:20S 05°15' E 011°33'2 5.3
2017-Dec-13 06:00S 05°17' E 011°34'2 3.9
2017-Dec-13 05:29S 05°15' E 011°35'2 3.4
2017-Dec-13 05:00S 05°16' E 011°34'1 0.1
2017-Dec-13 00:43S 05°16' E 011°35'0 0.0
2017-Dec-13 00:26S 05°16' E 011°35'0 0.0
2017-Dec-12 23:57S 05°16' E 011°35'0 0.0
2017-Dec-12 23:29S 05°16' E 011°35'0 0.0
2017-Dec-12 22:59S 05°16' E 011°35'0 0.0
2017-Dec-12 22:30S 05°16' E 011°35'0 0.0
2017-Dec-12 22:00S 05°16' E 011°35'0 0.0
2017-Dec-12 21:30S 05°16' E 011°35'0 0.0
2017-Dec-12 20:59S 05°16' E 011°35'0 0.0
2017-Dec-12 20:28S 05°16' E 011°35'0 0.0
2017-Dec-12 19:57S 05°16' E 011°35'0 0.0
2017-Dec-12 19:30S 05°16' E 011°35'0 0.0
2017-Dec-12 18:57S 05°16' E 011°35'0 0.0
2017-Dec-12 18:30S 05°16' E 011°35'0 0.0
2017-Dec-12 17:59S 05°16' E 011°35'1 1.6
2017-Dec-12 17:30S 05°16' E 011°34'1 1.5
2017-Dec-12 17:00S 05°16' E 011°35'0 0.0
2017-Dec-12 16:29S 05°16' E 011°35'0 0.0
2017-Dec-12 16:00S 05°16' E 011°35'1 1.4
2017-Dec-12 15:30S 05°16' E 011°34'0 0.8
2017-Dec-12 15:00S 05°16' E 011°34'1 1.6
2017-Dec-12 14:26S 05°17' E 011°34'0 0.6
2017-Dec-12 14:00S 05°17' E 011°34'0 0.4
2017-Dec-12 13:30S 05°17' E 011°34'1 1.0
2017-Dec-12 13:00S 05°17' E 011°34'1 1.9
2017-Dec-12 12:13S 05°16' E 011°35'0 0.1
2017-Dec-12 12:00S 05°16' E 011°35'0 0.0
2017-Dec-12 11:29S 05°16' E 011°35'1 1.6
2017-Dec-12 11:00S 05°16' E 011°34'1 1.5
2017-Dec-12 10:30S 05°16' E 011°35'0 0.0
2017-Dec-12 10:00S 05°16' E 011°35'0 0.0
2017-Dec-12 09:29S 05°16' E 011°35'1 2.0
2017-Dec-12 09:00S 05°16' E 011°34'0 0.3
2017-Dec-12 08:30S 05°16' E 011°34'0 0.1
2017-Dec-12 08:00S 05°16' E 011°34'0 0.0
2017-Dec-12 07:30S 05°16' E 011°34'1 1.7
2017-Dec-12 07:00S 05°16' E 011°35'0 0.4
2017-Dec-12 06:30S 05°16' E 011°34'1 1.9
2017-Dec-12 06:00S 05°17' E 011°34'2 3.7
2017-Dec-12 05:30S 05°15' E 011°35'1 2.2
2017-Dec-12 05:00S 05°16' E 011°34'1 1.1
2017-Dec-12 04:30S 05°16' E 011°35'0 0.0
2017-Dec-12 03:59S 05°16' E 011°35'0 0.0
2017-Dec-12 03:30S 05°16' E 011°35'0 0.0
2017-Dec-12 03:00S 05°16' E 011°35'0 0.0
2017-Dec-12 02:28S 05°16' E 011°35'0 0.0
2017-Dec-12 02:00S 05°16' E 011°35'0 0.0
2017-Dec-12 01:22S 05°16' E 011°35'0 0.0
2017-Dec-12 00:58S 05°16' E 011°35'0 0.0
2017-Dec-12 00:27S 05°16' E 011°35'0 0.0
2017-Dec-12 00:00S 05°16' E 011°35'0 0.0
2017-Dec-11 23:30S 05°16' E 011°35'0 0.0
2017-Dec-11 23:00S 05°16' E 011°35'0 0.0
2017-Dec-11 22:30S 05°16' E 011°35'0 0.0
2017-Dec-11 21:59S 05°16' E 011°35'0 0.0
2017-Dec-11 21:30S 05°16' E 011°35'0 0.0
2017-Dec-11 20:49S 05°16' E 011°35'0 0.0
2017-Dec-11 20:30S 05°16' E 011°35'0 0.0
2017-Dec-11 20:00S 05°16' E 011°35'0 0.0
2017-Dec-11 19:29S 05°16' E 011°35'0 0.0
2017-Dec-11 18:58S 05°16' E 011°35'0 0.1
2017-Dec-11 18:30S 05°16' E 011°35'1 1.9
2017-Dec-11 17:55S 05°15' E 011°35'2 3.8
2017-Dec-11 17:30S 05°16' E 011°34'1 1.6
2017-Dec-11 17:00S 05°17' E 011°33'0 0.3
2017-Dec-11 16:30S 05°17' E 011°33'0 0.4
2017-Dec-11 16:00S 05°17' E 011°33'1 1.3
2017-Dec-11 15:30S 05°17' E 011°33'0 0.7
2017-Dec-11 15:00S 05°17' E 011°33'1 1.1
2017-Dec-11 14:29S 05°17' E 011°34'1 1.9
2017-Dec-11 14:00S 05°16' E 011°35'0 0.0
2017-Dec-11 13:30S 05°16' E 011°35'0 0.0
2017-Dec-11 13:00S 05°16' E 011°35'0 0.0
2017-Dec-11 12:30S 05°16' E 011°35'1 1.5
2017-Dec-11 12:00S 05°16' E 011°34'1 1.6
2017-Dec-11 11:30S 05°17' E 011°34'1 1.8
2017-Dec-11 11:00S 05°16' E 011°34'0 0.0
2017-Dec-11 10:30S 05°16' E 011°34'0 0.0
2017-Dec-11 10:01S 05°16' E 011°34'2 3.4
2017-Dec-11 09:29S 05°15' E 011°33'2 3.7
2017-Dec-11 09:00S 05°16' E 011°34'1 1.8
2017-Dec-11 08:30S 05°16' E 011°35'2 3.4
2017-Dec-11 07:57S 05°15' E 011°33'2 4.9
2017-Dec-11 07:30S 05°17' E 011°33'0 0.8
2017-Dec-11 07:00S 05°17' E 011°34'2 3.8
2017-Dec-11 06:26S 05°15' E 011°33'2 4.5
2017-Dec-11 06:00S 05°17' E 011°34'0 0.6
2017-Dec-11 05:30S 05°17' E 011°34'0 0.1
2017-Dec-11 05:00S 05°17' E 011°34'1 1.6
2017-Dec-11 04:30S 05°16' E 011°35'0 0.0
2017-Dec-11 04:00S 05°16' E 011°35'0 0.0
2017-Dec-11 03:30S 05°16' E 011°35'0 0.0
2017-Dec-11 03:00S 05°16' E 011°35'0 0.0
2017-Dec-11 02:30S 05°16' E 011°35'0 0.0
2017-Dec-11 02:00S 05°16' E 011°35'0 0.0
2017-Dec-11 01:30S 05°16' E 011°35'0 0.0
2017-Dec-11 01:00S 05°16' E 011°35'0 0.0
2017-Dec-11 00:30S 05°16' E 011°35'0 0.0
2017-Dec-11 00:00S 05°16' E 011°35'0 0.0
2017-Dec-10 23:30S 05°16' E 011°35'0 0.0
2017-Dec-10 23:00S 05°16' E 011°35'0 0.0
2017-Dec-10 22:30S 05°16' E 011°35'0 0.0
2017-Dec-10 22:00S 05°16' E 011°35'0 0.0
2017-Dec-10 21:30S 05°16' E 011°35'0 0.0
2017-Dec-10 21:00S 05°16' E 011°35'0 0.0
2017-Dec-10 20:30S 05°16' E 011°35'0 0.0
2017-Dec-10 20:00S 05°16' E 011°35'0 0.0
2017-Dec-10 19:30S 05°16' E 011°35'0 0.0
2017-Dec-10 19:00S 05°16' E 011°35'0 0.0
2017-Dec-10 18:30S 05°16' E 011°35'0 0.0
2017-Dec-10 18:00S 05°16' E 011°35'1 1.6
2017-Dec-10 17:30S 05°16' E 011°34'0 0.1
2017-Dec-10 16:59S 05°16' E 011°34'0 0.7
2017-Dec-10 16:30S 05°17' E 011°34'2 3.6
2017-Dec-10 15:57S 05°15' E 011°33'2 4.0
2017-Dec-10 15:30S 05°16' E 011°34'1 1.9
2017-Dec-10 15:00S 05°16' E 011°34'1 2.0
2017-Dec-10 14:30S 05°16' E 011°35'0 0.0
2017-Dec-10 14:00S 05°16' E 011°35'1 1.5
2017-Dec-10 13:30S 05°16' E 011°34'1 1.5
2017-Dec-10 13:00S 05°16' E 011°35'0 0.0
2017-Dec-10 12:30S 05°16' E 011°35'1 2.2
2017-Dec-10 11:58S 05°15' E 011°34'1 2.3
2017-Dec-10 11:30S 05°16' E 011°34'1 1.5
2017-Dec-10 11:00S 05°16' E 011°35'1 1.9
2017-Dec-10 10:17S 05°16' E 011°33'1 3.8
2017-Dec-10 10:00S 05°16' E 011°34'0 0.5
2017-Dec-10 09:30S 05°16' E 011°34'0 0.3
2017-Dec-10 09:00S 05°16' E 011°34'0 0.2
2017-Dec-10 08:30S 05°16' E 011°34'2 2.7
2017-Dec-10 07:55S 05°15' E 011°33'2 4.6
2017-Dec-10 07:30S 05°17' E 011°34'1 2.6
2017-Dec-10 07:00S 05°16' E 011°33'1 1.0
2017-Dec-10 06:30S 05°16' E 011°33'0 1.0
2017-Dec-10 06:00S 05°17' E 011°33'0 0.9
2017-Dec-10 05:30S 05°16' E 011°34'0 0.0
2017-Dec-10 05:00S 05°16' E 011°34'1 1.6
2017-Dec-10 04:30S 05°16' E 011°35'0 0.0
2017-Dec-10 04:00S 05°16' E 011°35'0 0.0
2017-Dec-10 03:30S 05°16' E 011°35'0 0.0
2017-Dec-10 03:00S 05°16' E 011°35'0 0.0
2017-Dec-10 02:30S 05°16' E 011°35'0 0.0
2017-Dec-10 02:00S 05°16' E 011°35'0 0.0
2017-Dec-10 01:30S 05°16' E 011°35'0 0.0
2017-Dec-10 01:00S 05°16' E 011°35'0 0.0
2017-Dec-10 00:30S 05°16' E 011°35'0 0.0
2017-Dec-10 00:00S 05°16' E 011°35'0 0.0
2017-Dec-09 23:27S 05°16' E 011°35'0 0.0
2017-Dec-09 22:57S 05°16' E 011°35'0 0.0
2017-Dec-09 22:30S 05°16' E 011°35'0 0.0
2017-Dec-09 21:58S 05°16' E 011°35'0 0.0
2017-Dec-09 20:01S 05°16' E 011°35'0 0.1
2017-Dec-09 19:53S 05°16' E 011°35'0 0.0
2017-Dec-09 19:06S 05°16' E 011°35'0 0.1
2017-Dec-09 19:00S 05°16' E 011°35'0 0.0
2017-Dec-09 18:27S 05°16' E 011°35'0 0.0
2017-Dec-09 17:46S 05°16' E 011°35'1 4.1
2017-Dec-09 17:30S 05°15' E 011°35'2 3.2
2017-Dec-09 17:01S 05°16' E 011°34'0 0.5
2017-Dec-09 16:30S 05°16' E 011°34'2 3.2
2017-Dec-09 15:59S 05°15' E 011°33'0 0.0
2017-Dec-09 15:26S 05°15' E 011°33'2 4.2
2017-Dec-09 15:00S 05°16' E 011°34'1 2.7
2017-Dec-09 14:28S 05°15' E 011°33'2 3.6
2017-Dec-09 14:00S 05°16' E 011°35'0 0.0
2017-Dec-09 13:30S 05°16' E 011°35'0 0.0
2017-Dec-09 12:52S 05°16' E 011°35'0 0.0
2017-Dec-09 12:25S 05°16' E 011°35'0 0.0
2017-Dec-09 11:56S 05°16' E 011°35'1 1.2
2017-Dec-09 11:30S 05°16' E 011°34'1 1.6
2017-Dec-09 11:00S 05°16' E 011°34'1 0.9
2017-Dec-09 10:05S 05°16' E 011°35'0 0.1
2017-Dec-09 09:32S 05°16' E 011°35'0 0.5
2017-Dec-09 09:30S 05°16' E 011°35'1 3.0
2017-Dec-09 09:00S 05°15' E 011°33'1 2.5
2017-Dec-09 08:28S 05°17' E 011°33'0 0.4
2017-Dec-09 08:00S 05°17' E 011°34'2 4.0
2017-Dec-09 07:30S 05°15' E 011°33'2 3.9
2017-Dec-09 07:00S 05°17' E 011°34'1 2.2
2017-Dec-09 06:29S 05°16' E 011°33'1 2.0
2017-Dec-09 05:59S 05°17' E 011°34'2 3.9
2017-Dec-09 05:30S 05°15' E 011°35'2 3.2
2017-Dec-09 05:00S 05°16' E 011°34'1 0.7
2017-Dec-09 04:15S 05°16' E 011°35'0 0.1
2017-Dec-09 03:56S 05°16' E 011°35'0 0.1
2017-Dec-09 03:26S 05°16' E 011°35'0 0.0
2017-Dec-09 02:57S 05°16' E 011°35'0 0.0
2017-Dec-09 02:25S 05°16' E 011°35'0 0.0
2017-Dec-09 02:00S 05°16' E 011°35'0 0.0
2017-Dec-09 01:29S 05°16' E 011°35'0 0.0
2017-Dec-09 00:58S 05°16' E 011°35'0 0.0
2017-Dec-09 00:29S 05°16' E 011°35'0 0.0
2017-Dec-09 00:00S 05°16' E 011°35'0 0.0
2017-Dec-08 23:29S 05°16' E 011°35'0 0.0
2017-Dec-08 22:59S 05°16' E 011°35'0 0.0
2017-Dec-08 21:14S 05°16' E 011°35'0 0.0
2017-Dec-08 20:59S 05°16' E 011°35'0 0.0
2017-Dec-08 20:30S 05°16' E 011°35'0 0.0
2017-Dec-08 19:58S 05°16' E 011°35'0 0.1
2017-Dec-08 17:48S 05°16' E 011°35'1 2.2
2017-Dec-08 17:30S 05°16' E 011°34'0 0.4
2017-Dec-08 17:01S 05°16' E 011°34'0 0.4
2017-Dec-08 16:30S 05°17' E 011°34'0 0.4
2017-Dec-08 16:00S 05°16' E 011°34'1 1.6
2017-Dec-08 15:30S 05°16' E 011°34'1 1.9
2017-Dec-08 15:01S 05°17' E 011°34'2 2.2
2017-Dec-08 14:14S 05°15' E 011°33'1 4.7
2017-Dec-08 14:00S 05°15' E 011°34'2 3.0
2017-Dec-08 13:30S 05°17' E 011°34'2 3.2
2017-Dec-08 13:00S 05°15' E 011°34'1 0.9
2017-Dec-08 11:44S 05°16' E 011°35'1 4.6
2017-Dec-08 11:30S 05°15' E 011°34'  
Track history (hours):
 
Tides and Currents Weather Stations Pressure Air Temp Water Temp Dewpoint Dewpoint Depression Visibility Wind Speed Wind Dir Waves Ship Positions

Surfer14008

Last reported at 2017-Dec-18 11:18 UTC. Time now 2018-Feb-17 23:02 UTC.
Position S 05°10' E 011°38'.
Warning: this ship's position is months out of date.

Length 14 m.

Type: Ship. MMSI: 351082000.

Date/timePositionNaut miles runAvg speedWind from/ knotsBaromVisibWave heightAir tempDewpointWater temp
2017-Dec-18 11:18S 05°10' E 011°38'412.7
2017-Dec-18 11:00S 05°13' E 011°36'4 8.1
2017-Dec-18 10:30S 05°16' E 011°33'0 0.3
2017-Dec-18 09:59S 05°16' E 011°33'1 2.3
2017-Dec-18 09:28S 05°15' E 011°33'2 3.8
2017-Dec-18 09:01S 05°16' E 011°34'1 1.0
2017-Dec-18 08:13S 05°16' E 011°33'0 1.5
2017-Dec-18 08:01S 05°16' E 011°34'0 1.0
2017-Dec-18 07:30S 05°16' E 011°34'0 0.9
2017-Dec-18 07:00S 05°16' E 011°34'0 0.8
2017-Dec-18 06:30S 05°16' E 011°34'2 3.7
2017-Dec-18 06:00S 05°15' E 011°33'2 3.6
2017-Dec-18 05:30S 05°16' E 011°34'0 0.0
2017-Dec-18 05:00S 05°16' E 011°34'1 1.5
2017-Dec-18 04:28S 05°16' E 011°35'0 0.0
2017-Dec-18 03:55S 05°16' E 011°35'0 0.0
2017-Dec-18 03:28S 05°16' E 011°35'0 0.0
2017-Dec-18 03:00S 05°16' E 011°35'0 0.0
2017-Dec-18 02:30S 05°16' E 011°35'0 0.0
2017-Dec-17 23:19S 05°16' E 011°35'0 0.0
2017-Dec-17 22:56S 05°16' E 011°35'0 0.0
2017-Dec-17 22:30S 05°16' E 011°35'0 0.0
2017-Dec-17 21:57S 05°16' E 011°35'0 0.9
2017-Dec-17 21:30S 05°16' E 011°34'0 0.8
2017-Dec-17 20:59S 05°16' E 011°34'0 0.9
2017-Dec-17 20:30S 05°17' E 011°34'1 1.6
2017-Dec-17 19:59S 05°16' E 011°35'0 0.0
2017-Dec-17 19:30S 05°16' E 011°35'0 0.0
2017-Dec-17 18:58S 05°16' E 011°35'0 0.0
2017-Dec-17 18:29S 05°16' E 011°35'1 1.8
2017-Dec-17 18:00S 05°16' E 011°34'1 1.2
2017-Dec-17 17:30S 05°16' E 011°34'0 0.6
2017-Dec-17 17:00S 05°16' E 011°34'1 1.8
2017-Dec-17 16:30S 05°16' E 011°35'1 2.3
2017-Dec-17 16:00S 05°16' E 011°33'1 2.2
2017-Dec-17 15:30S 05°16' E 011°35'0 0.1
2017-Dec-17 14:59S 05°16' E 011°35'0 0.3
2017-Dec-17 14:30S 05°16' E 011°34'2 3.4
2017-Dec-17 14:00S 05°17' E 011°33'2 3.7
2017-Dec-17 13:30S 05°16' E 011°35'0 0.1
2017-Dec-17 12:59S 05°16' E 011°35'1 1.6
2017-Dec-17 12:30S 05°16' E 011°34'1 2.0
2017-Dec-17 12:00S 05°16' E 011°33'0 0.7
2017-Dec-17 11:30S 05°15' E 011°33'1 1.9
2017-Dec-17 11:00S 05°16' E 011°34'1 2.9
2017-Dec-17 10:30S 05°15' E 011°33'2 3.7
2017-Dec-17 10:00S 05°16' E 011°34'0 0.1
2017-Dec-17 09:30S 05°17' E 011°34'0 0.1
2017-Dec-17 09:00S 05°16' E 011°34'1 1.3
2017-Dec-17 08:30S 05°16' E 011°34'1 1.3
2017-Dec-17 08:00S 05°16' E 011°34'0 0.1
2017-Dec-17 07:30S 05°16' E 011°34'0 0.9
2017-Dec-17 07:00S 05°17' E 011°34'2 3.8
2017-Dec-17 06:30S 05°15' E 011°33'2 3.2
2017-Dec-17 06:00S 05°16' E 011°34'1 1.7
2017-Dec-17 05:30S 05°16' E 011°35'0 0.0
2017-Dec-17 05:00S 05°16' E 011°35'0 0.0
2017-Dec-16 19:01S 05°16' E 011°35'0 0.0
2017-Dec-16 18:58S 05°16' E 011°35'0 1.0
2017-Dec-16 18:30S 05°16' E 011°34'1 2.2
2017-Dec-16 18:00S 05°15' E 011°34'11 1.7
2017-Dec-16 11:17S 05°05' E 011°39'3 9.5
2017-Dec-16 11:00S 05°07' E 011°38'5 9.2
2017-Dec-16 10:30S 05°12' E 011°36'5 9.1
2017-Dec-16 10:00S 05°16' E 011°34'1 1.2
2017-Dec-16 09:30S 05°16' E 011°34'1 0.5
2017-Dec-16 08:09S 05°16' E 011°35'0 0.1
2017-Dec-16 07:46S 05°16' E 011°35'0 0.0
2017-Dec-16 07:30S 05°16' E 011°35'0 0.0
2017-Dec-16 07:00S 05°16' E 011°35'0 0.0
2017-Dec-16 06:30S 05°16' E 011°35'0 0.0
2017-Dec-16 06:00S 05°16' E 011°35'0 0.0
2017-Dec-16 05:30S 05°16' E 011°35'0 0.0
2017-Dec-16 05:00S 05°16' E 011°35'0 0.0
2017-Dec-16 04:30S 05°16' E 011°35'0 0.0
2017-Dec-16 04:00S 05°16' E 011°35'0 0.0
2017-Dec-16 03:30S 05°16' E 011°35'0 0.0
2017-Dec-16 03:00S 05°16' E 011°35'0 0.0
2017-Dec-16 02:30S 05°16' E 011°35'0 0.0
2017-Dec-16 01:38S 05°16' E 011°35'0 0.1
2017-Dec-16 01:30S 05°16' E 011°35'0 0.0
2017-Dec-16 01:00S 05°16' E 011°35'0 0.0
2017-Dec-16 00:30S 05°16' E 011°35'0 0.0
2017-Dec-16 00:00S 05°16' E 011°35'0 0.0
2017-Dec-15 23:30S 05°16' E 011°35'0 0.0
2017-Dec-15 23:00S 05°16' E 011°35'0 0.0
2017-Dec-15 22:30S 05°16' E 011°35'0 0.0
2017-Dec-15 22:00S 05°16' E 011°35'0 0.0
2017-Dec-15 21:30S 05°16' E 011°35'0 0.0
2017-Dec-15 21:00S 05°16' E 011°35'0 0.0
2017-Dec-15 20:30S 05°16' E 011°35'0 0.0
2017-Dec-15 20:01S 05°16' E 011°35'0 0.0
2017-Dec-15 19:30S 05°16' E 011°35'0 0.0
2017-Dec-15 19:00S 05°16' E 011°35'0 0.0
2017-Dec-15 18:29S 05°16' E 011°35'0 0.0
2017-Dec-15 18:00S 05°16' E 011°35'1 1.7
2017-Dec-15 17:30S 05°16' E 011°34'2 4.4
2017-Dec-15 17:00S 05°15' E 011°35'2 4.5
2017-Dec-15 16:30S 05°17' E 011°34'1 1.0
2017-Dec-15 16:00S 05°16' E 011°34'0 0.7
2017-Dec-15 15:30S 05°16' E 011°35'0 0.1
2017-Dec-15 15:01S 05°16' E 011°35'1 1.5
2017-Dec-15 14:30S 05°16' E 011°34'1 1.5
2017-Dec-15 14:00S 05°16' E 011°35'1 1.6
2017-Dec-15 13:31S 05°16' E 011°34'0 0.1
2017-Dec-15 12:59S 05°17' E 011°34'1 0.7
2017-Dec-15 11:49S 05°16' E 011°35'1 2.5
2017-Dec-15 11:30S 05°16' E 011°34'0 0.7
2017-Dec-15 11:00S 05°17' E 011°34'2 3.6
2017-Dec-15 10:30S 05°15' E 011°33'1 2.9
2017-Dec-15 10:00S 05°16' E 011°34'1 1.4
2017-Dec-15 09:26S 05°16' E 011°35'0 0.0
2017-Dec-15 08:59S 05°16' E 011°35'0 0.0
2017-Dec-15 08:14S 05°16' E 011°35'0 0.0
2017-Dec-15 08:00S 05°16' E 011°35'0 0.0
2017-Dec-15 07:31S 05°16' E 011°35'0 0.0
2017-Dec-15 07:00S 05°16' E 011°35'2 4.0
2017-Dec-15 06:30S 05°15' E 011°33'2 4.1
2017-Dec-15 06:00S 05°17' E 011°34'1 1.6
2017-Dec-15 05:30S 05°16' E 011°34'0 0.7
2017-Dec-15 05:00S 05°16' E 011°34'1 0.9
2017-Dec-15 04:10S 05°16' E 011°35'0 0.0
2017-Dec-15 04:00S 05°16' E 011°35'0 0.0
2017-Dec-15 00:51S 05°16' E 011°35'0 0.0
2017-Dec-15 00:30S 05°16' E 011°35'0 0.0
2017-Dec-14 18:30S 05°16' E 011°35'0 0.0
2017-Dec-14 18:00S 05°16' E 011°35'0 0.0
2017-Dec-14 17:30S 05°16' E 011°35'1 1.4
2017-Dec-14 17:00S 05°16' E 011°34'1 2.3
2017-Dec-14 16:30S 05°17' E 011°33'1 1.5
2017-Dec-14 16:00S 05°17' E 011°34'1 1.1
2017-Dec-14 15:01S 05°16' E 011°35'1 2.4
2017-Dec-14 14:30S 05°17' E 011°34'0 0.8
2017-Dec-14 14:00S 05°17' E 011°34'1 1.4
2017-Dec-14 13:30S 05°16' E 011°34'1 2.0
2017-Dec-14 13:00S 05°16' E 011°35'0 0.0
2017-Dec-14 12:30S 05°16' E 011°35'0 0.0
2017-Dec-14 12:00S 05°16' E 011°35'0 0.1
2017-Dec-14 11:30S 05°16' E 011°35'1 2.1
2017-Dec-14 11:00S 05°17' E 011°34'0 0.7
2017-Dec-14 10:30S 05°17' E 011°33'1 2.9
2017-Dec-14 10:00S 05°16' E 011°35'0 0.0
2017-Dec-14 09:28S 05°16' E 011°35'0 0.1
2017-Dec-14 09:00S 05°16' E 011°35'1 1.5
2017-Dec-14 08:30S 05°16' E 011°34'2 3.7
2017-Dec-14 08:00S 05°15' E 011°35'1 2.7
2017-Dec-14 07:30S 05°16' E 011°34'0 0.3
2017-Dec-14 06:35S 05°16' E 011°35'0 0.8
2017-Dec-14 06:20S 05°16' E 011°34'1 3.3
2017-Dec-14 06:00S 05°16' E 011°33'1 1.5
2017-Dec-14 05:30S 05°16' E 011°34'1 1.0
2017-Dec-14 05:00S 05°16' E 011°34'1 0.4
2017-Dec-14 02:49S 05°16' E 011°34'1 2.6
2017-Dec-14 02:30S 05°16' E 011°34'1 0.3
2017-Dec-13 23:53S 05°16' E 011°35'0 0.0
2017-Dec-13 23:22S 05°16' E 011°35'0 0.0
2017-Dec-13 22:59S 05°16' E 011°35'0 0.0
2017-Dec-13 20:54S 05°16' E 011°35'0 0.0
2017-Dec-13 20:29S 05°16' E 011°35'0 0.0
2017-Dec-13 19:58S 05°16' E 011°35'0 0.0
2017-Dec-13 19:25S 05°16' E 011°35'1 2.0
2017-Dec-13 19:00S 05°16' E 011°34'1 1.2
2017-Dec-13 18:17S 05°16' E 011°35'0 0.8
2017-Dec-13 17:56S 05°16' E 011°34'1 2.8
2017-Dec-13 17:26S 05°15' E 011°34'2 4.1
2017-Dec-13 17:00S 05°16' E 011°34'1 0.5
2017-Dec-13 15:43S 05°16' E 011°34'1 2.9
2017-Dec-13 15:30S 05°17' E 011°34'1 1.2
2017-Dec-13 15:00S 05°17' E 011°34'1 1.3
2017-Dec-13 14:30S 05°16' E 011°34'0 0.4
2017-Dec-13 14:00S 05°16' E 011°34'1 1.0
2017-Dec-13 13:01S 05°15' E 011°33'1 1.8
2017-Dec-13 12:30S 05°16' E 011°34'2 3.1
2017-Dec-13 11:59S 05°15' E 011°33'1 2.8
2017-Dec-13 11:27S 05°16' E 011°34'0 1.1
2017-Dec-13 11:00S 05°16' E 011°34'0 0.7
2017-Dec-13 10:31S 05°16' E 011°34'0 0.0
2017-Dec-13 10:00S 05°16' E 011°34'1 1.8
2017-Dec-13 09:30S 05°16' E 011°34'0 0.2
2017-Dec-13 08:57S 05°16' E 011°34'0 0.9
2017-Dec-13 08:30S 05°16' E 011°34'0 0.8
2017-Dec-13 08:00S 05°16' E 011°34'0 0.7
2017-Dec-13 07:30S 05°17' E 011°34'1 1.2
2017-Dec-13 07:00S 05°16' E 011°34'1 2.0
2017-Dec-13 06:20S 05°15' E 011°33'2 5.3
2017-Dec-13 06:00S 05°17' E 011°34'2 3.9
2017-Dec-13 05:29S 05°15' E 011°35'2 3.4
2017-Dec-13 05:00S 05°16' E 011°34'1 0.1
2017-Dec-13 00:43S 05°16' E 011°35'0 0.0
2017-Dec-13 00:26S 05°16' E 011°35'0 0.0
2017-Dec-12 23:57S 05°16' E 011°35'0 0.0
2017-Dec-12 23:29S 05°16' E 011°35'0 0.0
2017-Dec-12 22:59S 05°16' E 011°35'0 0.0
2017-Dec-12 22:30S 05°16' E 011°35'0 0.0
2017-Dec-12 22:00S 05°16' E 011°35'0 0.0
2017-Dec-12 21:30S 05°16' E 011°35'0 0.0
2017-Dec-12 20:59S 05°16' E 011°35'0 0.0
2017-Dec-12 20:28S 05°16' E 011°35'0 0.0
2017-Dec-12 19:57S 05°16' E 011°35'0 0.0
2017-Dec-12 19:30S 05°16' E 011°35'0 0.0
2017-Dec-12 18:57S 05°16' E 011°35'0 0.0
2017-Dec-12 18:30S 05°16' E 011°35'0 0.0
2017-Dec-12 17:59S 05°16' E 011°35'1 1.6
2017-Dec-12 17:30S 05°16' E 011°34'1 1.5
2017-Dec-12 17:00S 05°16' E 011°35'0 0.0
2017-Dec-12 16:29S 05°16' E 011°35'0 0.0
2017-Dec-12 16:00S 05°16' E 011°35'1 1.4
2017-Dec-12 15:30S 05°16' E 011°34'0 0.8
2017-Dec-12 15:00S 05°16' E 011°34'1 1.6
2017-Dec-12 14:26S 05°17' E 011°34'0 0.6
2017-Dec-12 14:00S 05°17' E 011°34'0 0.4
2017-Dec-12 13:30S 05°17' E 011°34'1 1.0
2017-Dec-12 13:00S 05°17' E 011°34'1 1.9
2017-Dec-12 12:13S 05°16' E 011°35'0 0.1
2017-Dec-12 12:00S 05°16' E 011°35'0 0.0
2017-Dec-12 11:29S 05°16' E 011°35'1 1.6
2017-Dec-12 11:00S 05°16' E 011°34'1 1.5
2017-Dec-12 10:30S 05°16' E 011°35'0 0.0
2017-Dec-12 10:00S 05°16' E 011°35'0 0.0
2017-Dec-12 09:29S 05°16' E 011°35'1 2.0
2017-Dec-12 09:00S 05°16' E 011°34'0 0.3
2017-Dec-12 08:30S 05°16' E 011°34'0 0.1
2017-Dec-12 08:00S 05°16' E 011°34'0 0.0
2017-Dec-12 07:30S 05°16' E 011°34'1 1.7
2017-Dec-12 07:00S 05°16' E 011°35'0 0.4
2017-Dec-12 06:30S 05°16' E 011°34'1 1.9
2017-Dec-12 06:00S 05°17' E 011°34'2 3.7
2017-Dec-12 05:30S 05°15' E 011°35'1 2.2
2017-Dec-12 05:00S 05°16' E 011°34'1 1.1
2017-Dec-12 04:30S 05°16' E 011°35'0 0.0
2017-Dec-12 03:59S 05°16' E 011°35'0 0.0
2017-Dec-12 03:30S 05°16' E 011°35'0 0.0
2017-Dec-12 03:00S 05°16' E 011°35'0 0.0
2017-Dec-12 02:28S 05°16' E 011°35'0 0.0
2017-Dec-12 02:00S 05°16' E 011°35'0 0.0
2017-Dec-12 01:22S 05°16' E 011°35'0 0.0
2017-Dec-12 00:58S 05°16' E 011°35'0 0.0
2017-Dec-12 00:27S 05°16' E 011°35'0 0.0
2017-Dec-12 00:00S 05°16' E 011°35'0 0.0
2017-Dec-11 23:30S 05°16' E 011°35'0 0.0
2017-Dec-11 23:00S 05°16' E 011°35'0 0.0
2017-Dec-11 22:30S 05°16' E 011°35'0 0.0
2017-Dec-11 21:59S 05°16' E 011°35'0 0.0
2017-Dec-11 21:30S 05°16' E 011°35'0 0.0
2017-Dec-11 20:49S 05°16' E 011°35'0 0.0
2017-Dec-11 20:30S 05°16' E 011°35'0 0.0
2017-Dec-11 20:00S 05°16' E 011°35'0 0.0
2017-Dec-11 19:29S 05°16' E 011°35'0 0.0
2017-Dec-11 18:58S 05°16' E 011°35'0 0.1
2017-Dec-11 18:30S 05°16' E 011°35'1 1.9
2017-Dec-11 17:55S 05°15' E 011°35'2 3.8
2017-Dec-11 17:30S 05°16' E 011°34'1 1.6
2017-Dec-11 17:00S 05°17' E 011°33'0 0.3
2017-Dec-11 16:30S 05°17' E 011°33'0 0.4
2017-Dec-11 16:00S 05°17' E 011°33'1 1.3
2017-Dec-11 15:30S 05°17' E 011°33'0 0.7
2017-Dec-11 15:00S 05°17' E 011°33'1 1.1
2017-Dec-11 14:29S 05°17' E 011°34'1 1.9
2017-Dec-11 14:00S 05°16' E 011°35'0 0.0
2017-Dec-11 13:30S 05°16' E 011°35'0 0.0
2017-Dec-11 13:00S 05°16' E 011°35'0 0.0
2017-Dec-11 12:30S 05°16' E 011°35'1 1.5
2017-Dec-11 12:00S 05°16' E 011°34'1 1.6
2017-Dec-11 11:30S 05°17' E 011°34'1 1.8
2017-Dec-11 11:00S 05°16' E 011°34'0 0.0
2017-Dec-11 10:30S 05°16' E 011°34'0 0.0
2017-Dec-11 10:01S 05°16' E 011°34'2 3.4
2017-Dec-11 09:29S 05°15' E 011°33'2 3.7
2017-Dec-11 09:00S 05°16' E 011°34'1 1.8
2017-Dec-11 08:30S 05°16' E 011°35'2 3.4
2017-Dec-11 07:57S 05°15' E 011°33'2 4.9
2017-Dec-11 07:30S 05°17' E 011°33'0 0.8
2017-Dec-11 07:00S 05°17' E 011°34'2 3.8
2017-Dec-11 06:26S 05°15' E 011°33'2 4.5
2017-Dec-11 06:00S 05°17' E 011°34'0 0.6
2017-Dec-11 05:30S 05°17' E 011°34'0 0.1
2017-Dec-11 05:00S 05°17' E 011°34'1 1.6
2017-Dec-11 04:30S 05°16' E 011°35'0 0.0
2017-Dec-11 04:00S 05°16' E 011°35'0 0.0
2017-Dec-11 03:30S 05°16' E 011°35'0 0.0
2017-Dec-11 03:00S 05°16' E 011°35'0 0.0
2017-Dec-11 02:30S 05°16' E 011°35'0 0.0
2017-Dec-11 02:00S 05°16' E 011°35'0 0.0
2017-Dec-11 01:30S 05°16' E 011°35'0 0.0
2017-Dec-11 01:00S 05°16' E 011°35'0 0.0
2017-Dec-11 00:30S 05°16' E 011°35'0 0.0
2017-Dec-11 00:00S 05°16' E 011°35'0 0.0
2017-Dec-10 23:30S 05°16' E 011°35'0 0.0
2017-Dec-10 23:00S 05°16' E 011°35'0 0.0
2017-Dec-10 22:30S 05°16' E 011°35'0 0.0
2017-Dec-10 22:00S 05°16' E 011°35'0 0.0
2017-Dec-10 21:30S 05°16' E 011°35'0 0.0
2017-Dec-10 21:00S 05°16' E 011°35'0 0.0
2017-Dec-10 20:30S 05°16' E 011°35'0 0.0
2017-Dec-10 20:00S 05°16' E 011°35'0 0.0
2017-Dec-10 19:30S 05°16' E 011°35'0 0.0
2017-Dec-10 19:00S 05°16' E 011°35'0 0.0
2017-Dec-10 18:30S 05°16' E 011°35'0 0.0
2017-Dec-10 18:00S 05°16' E 011°35'1 1.6
2017-Dec-10 17:30S 05°16' E 011°34'0 0.1
2017-Dec-10 16:59S 05°16' E 011°34'0 0.7
2017-Dec-10 16:30S 05°17' E 011°34'2 3.6
2017-Dec-10 15:57S 05°15' E 011°33'2 4.0
2017-Dec-10 15:30S 05°16' E 011°34'1 1.9
2017-Dec-10 15:00S 05°16' E 011°34'1 2.0
2017-Dec-10 14:30S 05°16' E 011°35'0 0.0
2017-Dec-10 14:00S 05°16' E 011°35'1 1.5
2017-Dec-10 13:30S 05°16' E 011°34'1 1.5
2017-Dec-10 13:00S 05°16' E 011°35'0 0.0
2017-Dec-10 12:30S 05°16' E 011°35'1 2.2
2017-Dec-10 11:58S 05°15' E 011°34'1 2.3
2017-Dec-10 11:30S 05°16' E 011°34'1 1.5
2017-Dec-10 11:00S 05°16' E 011°35'1 1.9
2017-Dec-10 10:17S 05°16' E 011°33'1 3.8
2017-Dec-10 10:00S 05°16' E 011°34'0 0.5
2017-Dec-10 09:30S 05°16' E 011°34'0 0.3
2017-Dec-10 09:00S 05°16' E 011°34'0 0.2
2017-Dec-10 08:30S 05°16' E 011°34'2 2.7
2017-Dec-10 07:55S 05°15' E 011°33'2 4.6
2017-Dec-10 07:30S 05°17' E 011°34'1 2.6
2017-Dec-10 07:00S 05°16' E 011°33'1 1.0
2017-Dec-10 06:30S 05°16' E 011°33'0 1.0
2017-Dec-10 06:00S 05°17' E 011°33'0 0.9
2017-Dec-10 05:30S 05°16' E 011°34'0 0.0
2017-Dec-10 05:00S 05°16' E 011°34'1 1.6
2017-Dec-10 04:30S 05°16' E 011°35'0 0.0
2017-Dec-10 04:00S 05°16' E 011°35'0 0.0
2017-Dec-10 03:30S 05°16' E 011°35'0 0.0
2017-Dec-10 03:00S 05°16' E 011°35'0 0.0
2017-Dec-10 02:30S 05°16' E 011°35'0 0.0
2017-Dec-10 02:00S 05°16' E 011°35'0 0.0
2017-Dec-10 01:30S 05°16' E 011°35'0 0.0
2017-Dec-10 01:00S 05°16' E 011°35'0 0.0
2017-Dec-10 00:30S 05°16' E 011°35'0 0.0
2017-Dec-10 00:00S 05°16' E 011°35'0 0.0
2017-Dec-09 23:27S 05°16' E 011°35'0 0.0
2017-Dec-09 22:57S 05°16' E 011°35'0 0.0
2017-Dec-09 22:30S 05°16' E 011°35'0 0.0
2017-Dec-09 21:58S 05°16' E 011°35'0 0.0
2017-Dec-09 20:01S 05°16' E 011°35'0 0.1
2017-Dec-09 19:53S 05°16' E 011°35'0 0.0
2017-Dec-09 19:06S 05°16' E 011°35'0 0.1
2017-Dec-09 19:00S 05°16' E 011°35'0 0.0
2017-Dec-09 18:27S 05°16' E 011°35'0 0.0
2017-Dec-09 17:46S 05°16' E 011°35'1 4.1
2017-Dec-09 17:30S 05°15' E 011°35'2 3.2
2017-Dec-09 17:01S 05°16' E 011°34'0 0.5
2017-Dec-09 16:30S 05°16' E 011°34'2 3.2
2017-Dec-09 15:59S 05°15' E 011°33'0 0.0
2017-Dec-09 15:26S 05°15' E 011°33'2 4.2
2017-Dec-09 15:00S 05°16' E 011°34'1 2.7
2017-Dec-09 14:28S 05°15' E 011°33'2 3.6
2017-Dec-09 14:00S 05°16' E 011°35'0 0.0
2017-Dec-09 13:30S 05°16' E 011°35'0 0.0
2017-Dec-09 12:52S 05°16' E 011°35'0 0.0
2017-Dec-09 12:25S 05°16' E 011°35'0 0.0
2017-Dec-09 11:56S 05°16' E 011°35'1 1.2
2017-Dec-09 11:30S 05°16' E 011°34'1 1.6
2017-Dec-09 11:00S 05°16' E 011°34'1 0.9
2017-Dec-09 10:05S 05°16' E 011°35'0 0.1
2017-Dec-09 09:32S 05°16' E 011°35'0 0.5
2017-Dec-09 09:30S 05°16' E 011°35'1 3.0
2017-Dec-09 09:00S 05°15' E 011°33'1 2.5
2017-Dec-09 08:28S 05°17' E 011°33'0 0.4
2017-Dec-09 08:00S 05°17' E 011°34'2 4.0
2017-Dec-09 07:30S 05°15' E 011°33'2 3.9
2017-Dec-09 07:00S 05°17' E 011°34'1 2.2
2017-Dec-09 06:29S 05°16' E 011°33'1 2.0
2017-Dec-09 05:59S 05°17' E 011°34'2 3.9
2017-Dec-09 05:30S 05°15' E 011°35'2 3.2
2017-Dec-09 05:00S 05°16' E 011°34'1 0.7
2017-Dec-09 04:15S 05°16' E 011°35'0 0.1
2017-Dec-09 03:56S 05°16' E 011°35'0 0.1
2017-Dec-09 03:26S 05°16' E 011°35'0 0.0
2017-Dec-09 02:57S 05°16' E 011°35'0 0.0
2017-Dec-09 02:25S 05°16' E 011°35'0 0.0
2017-Dec-09 02:00S 05°16' E 011°35'0 0.0
2017-Dec-09 01:29S 05°16' E 011°35'0 0.0
2017-Dec-09 00:58S 05°16' E 011°35'0 0.0
2017-Dec-09 00:29S 05°16' E 011°35'0 0.0
2017-Dec-09 00:00S 05°16' E 011°35'0 0.0
2017-Dec-08 23:29S 05°16' E 011°35'0 0.0
2017-Dec-08 22:59S 05°16' E 011°35'0 0.0
2017-Dec-08 21:14S 05°16' E 011°35'0 0.0
2017-Dec-08 20:59S 05°16' E 011°35'0 0.0
2017-Dec-08 20:30S 05°16' E 011°35'0 0.0
2017-Dec-08 19:58S 05°16' E 011°35'0 0.1
2017-Dec-08 17:48S 05°16' E 011°35'1 2.2
2017-Dec-08 17:30S 05°16' E 011°34'0 0.4
2017-Dec-08 17:01S 05°16' E 011°34'0 0.4
2017-Dec-08 16:30S 05°17' E 011°34'0 0.4
2017-Dec-08 16:00S 05°16' E 011°34'1 1.6
2017-Dec-08 15:30S 05°16' E 011°34'1 1.9
2017-Dec-08 15:01S 05°17' E 011°34'2 2.2
2017-Dec-08 14:14S 05°15' E 011°33'1 4.7
2017-Dec-08 14:00S 05°15' E 011°34'2 3.0
2017-Dec-08 13:30S 05°17' E 011°34'2 3.2
2017-Dec-08 13:00S 05°15' E 011°34'1 0.9
2017-Dec-08 11:44S 05°16' E 011°35'1 4.6
2017-Dec-08 11:30S 05°15' E 011°34'  

Dump ship's entire track history